< < Back
Terminal Aerodrome Forecast


Current Version              Previous Versions:   1  2  3  4  5  6  7  8  9  

Terminal Aerodrome Forecast

611
FTUS42 KFFC 011134
TAFFTY
TAF
KFTY 011134Z 0112/0212 28003KT P6SM BKN005
     FM011300 29005KT P6SM FEW005 SCT045
     FM011500 32006KT P6SM SCT045
     FM012100 30003KT P6SM SKC
     FM020600 12007KT P6SM BKN012
     FM020800 12007KT 3SM BR BKN007=

Latest METAR

314
SAUS70 KWBC 011400 RRM
MTRFTY
METAR KFTY 011353Z 34003KT 10SM CLR 16/13 A3006 RMK AO2 SLP173
T01610128


USA.gov is the U.S. government's official web portal to all federal, state and local government web resources and services.